createdAt,value
2023-04-23T00:02:12.446Z,6.54
2023-04-23T00:04:40.020Z,6.51
2023-04-23T00:07:07.296Z,6.50
2023-04-23T00:09:35.793Z,6.46
2023-04-23T00:12:03.005Z,6.44
2023-04-23T00:14:30.050Z,6.43
2023-04-23T00:16:57.020Z,6.39
2023-04-23T00:19:24.075Z,6.36
2023-04-23T00:21:50.918Z,6.34
2023-04-23T00:24:17.784Z,6.33
2023-04-23T00:26:44.649Z,6.33
2023-04-23T00:29:11.465Z,6.32
2023-04-23T00:31:38.388Z,6.31
2023-04-23T00:34:05.300Z,6.33
2023-04-23T00:36:32.095Z,6.31
2023-04-23T00:38:58.943Z,6.29
2023-04-23T00:41:27.564Z,6.29
2023-04-23T00:43:57.377Z,6.25
2023-04-23T00:46:26.564Z,6.22
2023-04-23T00:48:53.657Z,6.20
2023-04-23T00:51:23.575Z,6.20
2023-04-23T00:53:50.951Z,6.17
2023-04-23T00:56:18.736Z,6.16
2023-04-23T00:58:46.042Z,6.15
2023-04-23T01:01:14.248Z,6.14
2023-04-23T01:03:43.599Z,6.15
2023-04-23T01:06:10.543Z,6.15
2023-04-23T01:08:38.898Z,6.17
2023-04-23T01:11:06.184Z,6.22
2023-04-23T01:13:33.437Z,6.26
2023-04-23T01:16:00.321Z,6.27
2023-04-23T01:18:27.754Z,6.27
2023-04-23T01:20:54.686Z,6.27
2023-04-23T01:23:22.475Z,6.26
2023-04-23T01:25:49.634Z,6.27
2023-04-23T01:28:17.078Z,6.28
2023-04-23T01:30:45.465Z,6.28
2023-04-23T01:33:12.480Z,6.31
2023-04-23T01:35:41.446Z,6.33
2023-04-23T01:38:12.037Z,6.33
2023-04-23T01:40:38.937Z,6.33
2023-04-23T01:43:08.210Z,6.34
2023-04-23T01:45:35.190Z,6.33
2023-04-23T01:48:02.229Z,6.34
2023-04-23T01:50:30.179Z,6.35
2023-04-23T01:52:57.253Z,6.38
2023-04-23T01:55:24.123Z,6.38
2023-04-23T01:57:51.787Z,6.40
2023-04-23T02:00:19.080Z,6.41
2023-04-23T02:02:46.088Z,6.47
2023-04-23T02:05:20.902Z,6.49
2023-04-23T02:07:49.656Z,6.54
2023-04-23T02:10:17.064Z,6.58
2023-04-23T02:12:45.432Z,6.62
2023-04-23T02:15:13.088Z,6.63
2023-04-23T02:17:40.182Z,6.64
2023-04-23T02:20:09.933Z,6.67
2023-04-23T02:22:39.282Z,6.71
2023-04-23T02:25:07.446Z,6.75
2023-04-23T02:27:35.568Z,6.79
2023-04-23T02:30:02.698Z,6.84
2023-04-23T02:32:29.633Z,6.87
2023-04-23T02:34:56.729Z,6.91
2023-04-23T02:37:23.524Z,6.93
2023-04-23T02:39:50.545Z,6.96
2023-04-23T02:42:17.518Z,6.96
2023-04-23T02:44:44.317Z,6.97
2023-04-23T02:47:11.275Z,6.95
2023-04-23T02:49:38.034Z,6.96
2023-04-23T02:52:04.976Z,6.97
2023-04-23T02:54:32.553Z,6.96
2023-04-23T02:56:59.462Z,6.96
2023-04-23T02:59:26.432Z,6.97
2023-04-23T03:01:53.294Z,6.98
2023-04-23T03:04:20.804Z,7.01
2023-04-23T03:06:48.082Z,7.01
2023-04-23T03:09:15.378Z,7.03
2023-04-23T03:11:42.273Z,7.04
2023-04-23T03:14:09.112Z,7.06
2023-04-23T03:16:36.349Z,7.04
2023-04-23T03:19:03.227Z,7.04
2023-04-23T03:21:30.051Z,7.04
2023-04-23T03:23:57.092Z,7.04
2023-04-23T03:26:23.863Z,7.02
2023-04-23T03:28:50.728Z,7.01
2023-04-23T03:31:17.538Z,6.98
2023-04-23T03:33:44.414Z,6.99
2023-04-23T03:36:11.243Z,6.96
2023-04-23T03:38:38.474Z,6.96
2023-04-23T03:41:05.619Z,6.98
2023-04-23T03:43:32.562Z,6.98
2023-04-23T03:45:59.405Z,6.96
2023-04-23T03:48:26.374Z,6.94
2023-04-23T03:50:53.202Z,6.91
2023-04-23T03:53:20.005Z,6.89
2023-04-23T03:55:46.839Z,6.85
2023-04-23T03:58:13.927Z,6.81
2023-04-23T04:00:41.225Z,6.77
2023-04-23T04:03:09.569Z,6.75
2023-04-23T04:05:36.539Z,6.71
2023-04-23T04:08:05.132Z,6.70
2023-04-23T04:10:32.037Z,6.66
2023-04-23T04:12:58.851Z,6.64
2023-04-23T04:15:25.795Z,6.62
2023-04-23T04:17:52.604Z,6.60
2023-04-23T04:20:19.834Z,6.56
2023-04-23T04:22:46.910Z,6.56
2023-04-23T04:25:13.652Z,6.54
2023-04-23T04:27:41.878Z,6.54
2023-04-23T04:30:09.614Z,6.54
2023-04-23T04:32:39.015Z,6.50
2023-04-23T04:35:06.940Z,6.50
2023-04-23T04:37:33.887Z,6.49
2023-04-23T04:40:01.597Z,6.50
2023-04-23T04:42:28.406Z,6.52
2023-04-23T04:44:55.211Z,6.53
2023-04-23T04:47:22.032Z,6.55
2023-04-23T04:49:48.995Z,6.58
2023-04-23T04:52:15.935Z,6.57
2023-04-23T04:54:42.991Z,6.59
2023-04-23T04:57:09.969Z,6.63
2023-04-23T04:59:36.972Z,6.67
2023-04-23T05:02:03.938Z,6.73
2023-04-23T05:04:30.859Z,6.88
2023-04-23T05:06:57.830Z,7.16
2023-04-23T05:09:26.165Z,7.18
2023-04-23T05:11:53.004Z,7.14
2023-04-23T05:14:19.871Z,7.12
2023-04-23T05:16:46.686Z,7.11
2023-04-23T05:19:13.594Z,7.11
2023-04-23T05:21:40.792Z,7.23
2023-04-23T05:24:07.630Z,7.48
2023-04-23T05:26:34.461Z,8.44
2023-04-23T05:29:01.193Z,9.91
2023-04-23T05:31:29.429Z,10.56
2023-04-23T05:33:56.345Z,11.59
2023-04-23T05:36:23.173Z,12.32
2023-04-23T05:38:50.005Z,12.99
2023-04-23T05:41:16.909Z,13.46
2023-04-23T05:43:43.959Z,14.03
2023-04-23T05:46:10.736Z,14.58
2023-04-23T05:48:37.542Z,14.92
2023-04-23T05:51:04.521Z,15.32
2023-04-23T05:53:31.345Z,15.34
2023-04-23T05:55:58.227Z,15.23
2023-04-23T05:58:25.996Z,15.34
2023-04-23T06:00:53.469Z,15.47
2023-04-23T06:03:20.697Z,15.83
2023-04-23T06:05:47.871Z,16.24
2023-04-23T06:08:14.993Z,16.38
2023-04-23T06:10:41.930Z,16.49
2023-04-23T06:13:09.056Z,16.84
2023-04-23T06:15:35.914Z,17.04
2023-04-23T06:18:02.858Z,17.16
2023-04-23T06:20:30.192Z,17.43
2023-04-23T06:22:56.959Z,17.48
2023-04-23T06:25:23.776Z,17.50
2023-04-23T06:27:50.596Z,17.73
2023-04-23T06:30:17.393Z,17.64
2023-04-23T06:32:44.276Z,17.40
2023-04-23T06:35:11.139Z,17.35
2023-04-23T06:37:37.917Z,17.26
2023-04-23T06:40:05.105Z,17.05
2023-04-23T06:42:32.009Z,16.71
2023-04-23T06:44:59.729Z,16.91
2023-04-23T06:47:26.539Z,16.99
2023-04-23T06:49:53.300Z,17.09
2023-04-23T06:52:20.092Z,17.21
2023-04-23T06:54:46.961Z,17.25
2023-04-23T06:57:13.762Z,17.45
2023-04-23T06:59:40.536Z,17.73
2023-04-23T07:02:07.768Z,17.82
2023-04-23T07:04:34.804Z,17.73
2023-04-23T07:07:01.718Z,17.71
2023-04-23T07:09:29.075Z,17.58
2023-04-23T07:11:56.317Z,17.03
2023-04-23T07:14:23.133Z,16.45
2023-04-23T07:16:50.270Z,15.86
2023-04-23T07:19:17.117Z,15.28
2023-04-23T07:21:43.939Z,15.10
2023-04-23T07:24:11.464Z,15.01
2023-04-23T07:26:38.409Z,14.90
2023-04-23T07:29:10.771Z,14.77
2023-04-23T07:31:41.708Z,14.78
2023-04-23T07:34:09.994Z,14.89
2023-04-23T07:36:37.117Z,14.98
2023-04-23T07:39:05.489Z,15.01
2023-04-23T07:41:33.440Z,14.95
2023-04-23T07:44:00.384Z,15.04
2023-04-23T07:46:27.366Z,15.23
2023-04-23T07:48:54.241Z,15.27
2023-04-23T07:51:22.610Z,15.29
2023-04-23T07:53:51.421Z,15.34
2023-04-23T07:56:18.294Z,15.29
2023-04-23T07:58:45.052Z,15.38
2023-04-23T08:01:12.095Z,15.51
2023-04-23T08:03:39.252Z,15.56
2023-04-23T08:06:06.618Z,15.47
2023-04-23T08:08:33.463Z,15.47
2023-04-23T08:11:00.317Z,15.49
2023-04-23T08:13:27.205Z,15.46
2023-04-23T08:15:54.152Z,15.49
2023-04-23T08:18:21.118Z,15.78
2023-04-23T08:20:49.241Z,15.89
2023-04-23T08:23:16.444Z,15.98
2023-04-23T08:25:43.608Z,16.01
2023-04-23T08:28:10.505Z,16.19
2023-04-23T08:30:37.424Z,16.39
2023-04-23T08:33:04.692Z,16.29
2023-04-23T08:35:31.661Z,16.36
2023-04-23T08:37:58.643Z,16.51
2023-04-23T08:40:29.298Z,16.47
2023-04-23T08:43:03.810Z,16.72
2023-04-23T08:45:31.530Z,16.70
2023-04-23T08:48:02.616Z,16.91
2023-04-23T08:50:31.114Z,17.10
2023-04-23T08:52:58.674Z,17.16
2023-04-23T08:55:26.357Z,17.01
2023-04-23T08:57:53.222Z,17.19
2023-04-23T09:00:23.311Z,17.23
2023-04-23T09:02:50.941Z,17.51
2023-04-23T09:05:18.781Z,17.67
2023-04-23T09:07:45.858Z,17.75
2023-04-23T09:10:16.999Z,17.94
2023-04-23T09:12:45.698Z,18.24
2023-04-23T09:15:13.978Z,18.25
2023-04-23T09:17:44.215Z,18.32
2023-04-23T09:20:12.336Z,18.42
2023-04-23T09:22:42.293Z,18.48
2023-04-23T09:25:12.183Z,18.58
2023-04-23T09:27:40.300Z,18.69
2023-04-23T09:30:10.054Z,18.75
2023-04-23T09:32:42.762Z,18.76
2023-04-23T09:35:15.565Z,19.02
2023-04-23T09:37:44.104Z,19.21
2023-04-23T09:40:14.360Z,19.32
2023-04-23T09:42:41.593Z,19.25
2023-04-23T09:45:11.699Z,19.31
2023-04-23T09:47:39.830Z,19.36
2023-04-23T09:50:08.635Z,19.34
2023-04-23T09:52:39.382Z,19.58
2023-04-23T09:55:07.017Z,19.76
2023-04-23T09:57:44.725Z,19.91
2023-04-23T10:00:17.184Z,19.84
2023-04-23T10:02:51.297Z,19.70
2023-04-23T10:05:27.266Z,19.61
2023-04-23T10:07:58.774Z,19.58
2023-04-23T10:10:26.201Z,19.59
2023-04-23T10:12:55.880Z,20.13
2023-04-23T10:15:27.345Z,20.10
2023-04-23T10:17:56.020Z,19.88
2023-04-23T10:20:24.557Z,19.80
2023-04-23T10:22:54.064Z,19.44
2023-04-23T10:25:23.132Z,19.40
2023-04-23T10:27:54.419Z,19.11
2023-04-23T10:30:23.272Z,19.04
2023-04-23T10:32:50.905Z,19.30
2023-04-23T10:35:18.188Z,19.32
2023-04-23T10:37:47.200Z,19.56
2023-04-23T10:40:19.187Z,19.51
2023-04-23T10:42:47.528Z,19.58
2023-04-23T10:45:24.595Z,19.43
2023-04-23T10:47:55.472Z,19.57
2023-04-23T10:50:30.404Z,19.82
2023-04-23T10:52:58.307Z,20.06
2023-04-23T10:55:31.011Z,20.42
2023-04-23T10:58:02.412Z,20.29
2023-04-23T11:00:46.099Z,20.60
2023-04-23T11:03:32.348Z,20.77
2023-04-23T11:06:03.535Z,20.88
2023-04-23T11:08:34.324Z,20.62
2023-04-23T11:11:06.979Z,20.56
2023-04-23T11:13:34.051Z,20.50
2023-04-23T11:16:16.972Z,20.45
2023-04-23T11:19:12.546Z,20.32
2023-04-23T11:22:01.773Z,20.34
2023-04-23T11:24:37.534Z,20.47
2023-04-23T11:27:09.058Z,20.61
2023-04-23T11:29:37.737Z,20.66
2023-04-23T11:32:05.845Z,20.51
2023-04-23T11:34:34.086Z,20.54
2023-04-23T11:37:02.801Z,20.49
2023-04-23T11:39:29.817Z,20.79
2023-04-23T11:41:57.998Z,20.99
2023-04-23T11:44:25.580Z,21.00
2023-04-23T11:46:52.639Z,21.28
2023-04-23T11:49:20.864Z,21.29
2023-04-23T11:51:48.583Z,21.19
2023-04-23T11:54:15.510Z,20.88
2023-04-23T11:56:42.723Z,20.52
2023-04-23T11:59:09.801Z,20.37
2023-04-23T12:01:41.617Z,20.43
2023-04-23T12:04:12.471Z,20.42
2023-04-23T12:06:43.048Z,20.59
2023-04-23T12:09:12.174Z,20.66
2023-04-23T12:11:41.028Z,20.60
2023-04-23T12:14:08.891Z,20.38
2023-04-23T12:16:41.505Z,20.24
2023-04-23T12:19:10.090Z,20.26
2023-04-23T12:21:51.369Z,20.39
2023-04-23T12:24:18.330Z,20.61
2023-04-23T12:26:45.286Z,20.79
2023-04-23T12:29:14.354Z,21.09
2023-04-23T12:31:44.430Z,21.22
2023-04-23T12:34:14.725Z,21.37
2023-04-23T12:36:45.969Z,21.64
2023-04-23T12:39:39.111Z,21.47
2023-04-23T12:42:08.329Z,21.28
2023-04-23T12:44:36.511Z,20.97
2023-04-23T12:47:08.560Z,20.72
2023-04-23T12:49:37.244Z,20.97
2023-04-23T12:52:05.748Z,20.98
2023-04-23T12:54:38.063Z,20.97
2023-04-23T12:57:13.084Z,21.47
2023-04-23T12:59:40.113Z,21.76
2023-04-23T13:02:07.519Z,21.27
2023-04-23T13:04:36.219Z,20.57
2023-04-23T13:07:03.868Z,20.54
2023-04-23T13:09:30.862Z,20.57
2023-04-23T13:11:57.930Z,20.46
2023-04-23T13:14:25.009Z,20.37
2023-04-23T13:16:53.009Z,20.30
2023-04-23T13:19:19.969Z,20.36
2023-04-23T13:21:46.958Z,20.46
2023-04-23T13:24:16.817Z,20.48
2023-04-23T13:26:43.954Z,20.58
2023-04-23T13:29:11.704Z,20.63
2023-04-23T13:31:38.770Z,20.42
2023-04-23T13:34:05.770Z,20.49
2023-04-23T13:36:32.715Z,20.48
2023-04-23T13:38:59.577Z,20.47
2023-04-23T13:41:27.584Z,20.31
2023-04-23T13:43:54.400Z,20.21
2023-04-23T13:46:21.449Z,20.15
2023-04-23T13:48:48.505Z,20.22
2023-04-23T13:51:33.125Z,20.17
2023-04-23T13:54:02.102Z,20.17
2023-04-23T13:56:30.822Z,20.05
2023-04-23T14:01:33.534Z,19.99
2023-04-23T14:04:00.546Z,19.89
2023-04-23T14:06:28.074Z,19.80
2023-04-23T14:08:55.023Z,19.77
2023-04-23T14:11:22.844Z,19.88
2023-04-23T14:13:49.815Z,19.93
2023-04-23T14:16:17.684Z,19.91
2023-04-23T14:18:45.885Z,20.02
2023-04-23T14:21:14.932Z,19.91
2023-04-23T14:23:50.471Z,19.73
2023-04-23T14:26:41.156Z,19.53
2023-04-23T14:29:23.100Z,19.36
2023-04-23T14:31:50.597Z,19.27
2023-04-23T14:34:17.499Z,19.22
2023-04-23T14:36:46.741Z,19.11
2023-04-23T14:39:13.585Z,19.26
2023-04-23T14:41:41.173Z,19.25
2023-04-23T14:44:08.210Z,19.09
2023-04-23T14:46:35.069Z,19.02
2023-04-23T14:49:01.908Z,18.99
2023-04-23T14:51:28.839Z,18.84
2023-04-23T14:53:56.870Z,18.72
2023-04-23T14:56:24.042Z,18.53
2023-04-23T14:58:51.001Z,18.21
2023-04-23T15:01:17.964Z,17.84
2023-04-23T15:03:45.559Z,17.40
2023-04-23T15:06:12.657Z,17.03
2023-04-23T15:08:39.575Z,16.62
2023-04-23T15:11:13.395Z,16.12
2023-04-23T15:13:42.925Z,15.82
2023-04-23T15:16:46.783Z,15.42
2023-04-23T15:19:14.843Z,15.10
2023-04-23T15:21:43.263Z,14.83
2023-04-23T15:24:10.504Z,14.58
2023-04-23T15:26:38.059Z,14.46
2023-04-23T15:29:09.035Z,14.38
2023-04-23T15:31:39.076Z,14.29
2023-04-23T15:34:09.272Z,14.20
2023-04-23T15:36:38.178Z,14.15
2023-04-23T15:39:07.391Z,14.06
2023-04-23T15:41:38.479Z,14.04
2023-04-23T15:44:11.117Z,14.03
2023-04-23T15:46:38.028Z,14.06
2023-04-23T15:49:05.787Z,14.04
2023-04-23T15:51:33.117Z,13.99
2023-04-23T15:54:02.280Z,13.95
2023-04-23T15:56:29.369Z,13.91
2023-04-23T15:58:56.371Z,13.83
2023-04-23T16:01:25.483Z,13.70
2023-04-23T16:04:08.598Z,13.55
2023-04-23T16:06:37.549Z,13.50
2023-04-23T16:09:07.348Z,13.38
2023-04-23T16:11:35.874Z,13.29
2023-04-23T16:14:02.830Z,13.24
2023-04-23T16:16:30.964Z,13.19
2023-04-23T16:18:58.024Z,13.08
2023-04-23T16:21:24.936Z,13.06
2023-04-23T16:23:51.929Z,13.07
2023-04-23T16:26:18.938Z,13.08
2023-04-23T16:28:51.836Z,13.06
2023-04-23T16:31:28.403Z,13.07
2023-04-23T16:33:56.455Z,13.00
2023-04-23T16:36:23.407Z,12.94
2023-04-23T16:38:50.312Z,12.96
2023-04-23T16:41:19.413Z,12.97
2023-04-23T16:43:50.002Z,12.93
2023-04-23T16:46:17.244Z,12.94
2023-04-23T16:48:45.457Z,12.91
2023-04-23T16:51:14.052Z,12.92
2023-04-23T16:53:41.230Z,12.87
2023-04-23T16:56:08.801Z,12.79
2023-04-23T16:58:36.250Z,12.77
2023-04-23T17:01:03.179Z,12.70
2023-04-23T17:03:30.198Z,12.64
2023-04-23T17:06:10.313Z,12.59
2023-04-23T17:08:38.285Z,12.53
2023-04-23T17:11:08.609Z,12.35
2023-04-23T17:13:35.709Z,12.28
2023-04-23T17:16:03.037Z,12.25
2023-04-23T17:18:30.246Z,12.23
2023-04-23T17:20:57.325Z,12.16
2023-04-23T17:23:24.277Z,12.10
2023-04-23T17:25:51.174Z,12.06
2023-04-23T17:28:21.249Z,12.07
2023-04-23T17:30:51.402Z,12.05
2023-04-23T17:33:18.563Z,11.95
2023-04-23T17:35:46.958Z,11.92
2023-04-23T17:38:14.162Z,11.90
2023-04-23T17:40:41.172Z,11.85
2023-04-23T17:43:08.074Z,11.80
2023-04-23T17:45:35.097Z,11.76
2023-04-23T17:48:02.179Z,11.66
2023-04-23T17:50:30.098Z,11.59
2023-04-23T17:52:57.351Z,11.57
2023-04-23T17:55:24.418Z,11.55
2023-04-23T17:57:51.434Z,11.51
2023-04-23T18:00:19.266Z,11.49
2023-04-23T18:02:46.729Z,11.47
2023-04-23T18:05:15.569Z,11.49
2023-04-23T18:07:43.922Z,11.46
2023-04-23T18:10:12.418Z,11.45
2023-04-23T18:12:39.788Z,11.43
2023-04-23T18:15:08.890Z,11.39
2023-04-23T18:17:35.829Z,11.34
2023-04-23T18:20:02.963Z,11.29
2023-04-23T18:22:29.887Z,11.23
2023-04-23T18:24:56.948Z,11.19
2023-04-23T18:27:24.790Z,11.20
2023-04-23T18:29:51.741Z,11.19
2023-04-23T18:32:31.452Z,11.14
2023-04-23T18:35:02.580Z,11.10
2023-04-23T18:37:33.652Z,11.14
2023-04-23T18:40:00.933Z,11.15
2023-04-23T18:42:27.908Z,11.14
2023-04-23T18:44:55.655Z,11.13
2023-04-23T18:47:28.519Z,11.14
2023-04-23T18:50:03.094Z,11.11
2023-04-23T18:52:30.051Z,11.10
2023-04-23T18:54:57.163Z,11.06
2023-04-23T18:57:24.145Z,11.03
2023-04-23T18:59:51.229Z,11.04
2023-04-23T19:02:24.876Z,11.02
2023-04-23T19:05:01.803Z,11.04
2023-04-23T19:07:28.934Z,11.04
2023-04-23T19:09:55.977Z,11.02
2023-04-23T19:12:22.935Z,10.93
2023-04-23T19:14:49.868Z,10.88
2023-04-23T19:17:18.798Z,10.88
2023-04-23T19:19:46.351Z,10.85
2023-04-23T19:22:13.131Z,10.85
2023-04-23T19:24:40.065Z,10.86
2023-04-23T19:27:07.370Z,10.86
2023-04-23T19:29:34.324Z,10.82
2023-04-23T19:32:01.331Z,10.82
2023-04-23T19:34:28.320Z,10.80
2023-04-23T19:36:55.130Z,10.77
2023-04-23T19:39:23.836Z,10.76
2023-04-23T19:41:50.932Z,10.79
2023-04-23T19:44:17.709Z,10.76
2023-04-23T19:46:44.759Z,10.74
2023-04-23T19:49:11.676Z,10.74
2023-04-23T19:51:40.154Z,10.73
2023-04-23T19:54:07.242Z,10.71
2023-04-23T19:56:34.204Z,10.71
2023-04-23T19:59:01.194Z,10.72
2023-04-23T20:01:30.172Z,10.74
2023-04-23T20:03:57.486Z,10.75
2023-04-23T20:06:24.447Z,10.74
2023-04-23T20:09:18.343Z,10.75
2023-04-23T20:11:46.220Z,10.74
2023-04-23T20:14:13.667Z,10.78
2023-04-23T20:16:41.673Z,10.76
2023-04-23T20:19:11.284Z,10.78
2023-04-23T20:21:39.061Z,10.77
2023-04-23T20:24:07.803Z,10.76
2023-04-23T20:26:39.072Z,10.72
2023-04-23T20:29:06.336Z,10.70
2023-04-23T20:31:33.671Z,10.68
2023-04-23T20:34:01.309Z,10.65
2023-04-23T20:36:29.095Z,10.62
2023-04-23T20:38:59.673Z,10.60
2023-04-23T20:41:29.446Z,10.57
2023-04-23T20:43:57.387Z,10.56
2023-04-23T20:46:30.185Z,10.55
2023-04-23T20:48:59.529Z,10.55
2023-04-23T20:51:30.057Z,10.53
2023-04-23T20:53:57.787Z,10.49
2023-04-23T20:56:24.662Z,10.41
2023-04-23T20:58:51.576Z,10.36
2023-04-23T21:01:18.470Z,10.31
2023-04-23T21:03:45.399Z,10.27
2023-04-23T21:06:12.391Z,10.18
2023-04-23T21:08:41.465Z,10.14
2023-04-23T21:11:14.826Z,10.11
2023-04-23T21:13:42.817Z,10.07
2023-04-23T21:16:09.705Z,10.02
2023-04-23T21:18:36.548Z,9.96
2023-04-23T21:21:03.950Z,9.92
2023-04-23T21:23:31.332Z,9.86
2023-04-23T21:25:58.300Z,9.77
2023-04-23T21:28:25.168Z,9.72
2023-04-23T21:30:54.498Z,9.67
2023-04-23T21:33:23.765Z,9.62
2023-04-23T21:35:52.683Z,9.53
2023-04-23T21:38:20.222Z,9.49
2023-04-23T21:40:47.173Z,9.42
2023-04-23T21:43:15.072Z,9.42
2023-04-23T21:45:41.932Z,9.41
2023-04-23T21:48:08.836Z,9.37
2023-04-23T21:50:36.284Z,9.37
2023-04-23T21:53:04.147Z,9.36
2023-04-23T21:55:31.887Z,9.37
2023-04-23T21:58:15.878Z,9.38
2023-04-23T22:00:45.053Z,9.40
2023-04-23T22:03:19.092Z,9.41
2023-04-23T22:05:59.448Z,9.45
2023-04-23T22:08:27.005Z,9.47
2023-04-23T22:10:53.891Z,9.47
2023-04-23T22:13:21.571Z,9.47
2023-04-23T22:15:51.404Z,9.49
2023-04-23T22:18:18.254Z,9.49
2023-04-23T22:20:48.391Z,9.52
2023-04-23T22:23:15.656Z,9.51
2023-04-23T22:25:42.826Z,9.52
2023-04-23T22:28:09.657Z,9.51
2023-04-23T22:30:36.825Z,9.52
2023-04-23T22:33:05.304Z,9.51
2023-04-23T22:35:32.487Z,9.51
2023-04-23T22:37:59.490Z,9.52
2023-04-23T22:40:26.290Z,9.52
2023-04-23T22:42:53.074Z,9.52
2023-04-23T22:45:19.861Z,9.51
2023-04-23T22:47:46.877Z,9.52
2023-04-23T22:50:13.909Z,9.54
2023-04-23T22:52:41.562Z,9.56
2023-04-23T22:55:08.722Z,9.54
2023-04-23T22:57:36.058Z,9.54
2023-04-23T23:00:07.681Z,9.52
2023-04-23T23:02:34.686Z,9.44
2023-04-23T23:05:01.469Z,9.34
2023-04-23T23:07:28.282Z,9.27
2023-04-23T23:09:55.133Z,9.24
2023-04-23T23:12:22.575Z,9.18
2023-04-23T23:14:49.379Z,9.13
2023-04-23T23:17:16.377Z,9.10
2023-04-23T23:19:43.413Z,9.06
2023-04-23T23:22:10.473Z,9.06
2023-04-23T23:24:37.578Z,9.01
2023-04-23T23:27:04.417Z,8.98
2023-04-23T23:29:31.713Z,8.99
2023-04-23T23:31:58.773Z,8.91
2023-04-23T23:34:25.777Z,8.90
2023-04-23T23:36:52.573Z,8.86
2023-04-23T23:39:20.248Z,8.84
2023-04-23T23:41:47.388Z,8.84
2023-04-23T23:44:14.432Z,8.79
2023-04-23T23:46:41.324Z,8.79
2023-04-23T23:49:10.860Z,8.79
2023-04-23T23:51:37.600Z,8.77
2023-04-23T23:54:04.492Z,8.74
2023-04-23T23:56:31.275Z,8.70
2023-04-23T23:58:58.051Z,8.68
